Time;durP1;ratioP1;P1;durP2;ratioP2;P2;SDS_P1;SDS_P2;PMS_P1;PMS_P2;Temp;Humidity;BMP_temperature;BMP_pressure;BME280_temperature;BME280_humidity;BME280_pressure;Samples;Min_cycle;Max_cycle;Signal;HPM_P1;HPM_P2
2024/04/09 00:00:39;;;;;;;5.83;2.20;;;16.00;99.90;;;;;;5487458;26;20212;-82
2024/04/09 00:03:05;;;;;;;6.53;2.57;;;15.90;99.90;;;;;;5487851;26;20210;-78
2024/04/09 00:05:39;;;;;;;7.90;2.60;;;15.90;99.90;;;;;;5487368;26;20735;-78
2024/04/09 00:08:07;;;;;;;7.90;2.47;;;15.80;99.90;;;;;;5487595;26;20217;-78
2024/04/09 00:10:36;;;;;;;6.50;2.40;;;15.80;99.90;;;;;;5487730;26;20232;-78
2024/04/09 00:13:04;;;;;;;8.90;2.50;;;15.70;99.90;;;;;;5487629;26;20278;-80
2024/04/09 00:15:36;;;;;;;8.90;3.03;;;15.70;99.90;;;;;;5487919;26;20288;-78
2024/04/09 00:18:11;;;;;;;9.20;3.13;;;15.70;99.90;;;;;;5486070;26;20725;-83
2024/04/09 00:20:42;;;;;;;7.17;2.47;;;15.70;99.90;;;;;;5491384;26;20316;-81
2024/04/09 00:23:16;;;;;;;6.97;2.30;;;15.70;99.90;;;;;;5491622;26;20263;-81
2024/04/09 00:25:44;;;;;;;5.73;2.47;;;15.70;99.90;;;;;;5492124;26;20669;-79
2024/04/09 00:28:11;;;;;;;5.53;2.27;;;15.80;99.90;;;;;;5491036;26;20703;-79
2024/04/09 00:30:39;;;;;;;7.27;3.03;;;15.80;99.90;;;;;;5489363;26;20213;-79
2024/04/09 00:33:07;;;;;;;6.37;2.20;;;15.80;99.90;;;;;;5489329;26;20645;-77
2024/04/09 00:35:33;;;;;;;6.30;2.37;;;15.70;99.90;;;;;;5491028;26;20224;-79
2024/04/09 00:37:59;;;;;;;4.87;2.23;;;15.60;99.90;;;;;;5491184;26;20313;-83
2024/04/09 00:40:26;;;;;;;4.87;2.10;;;15.60;99.90;;;;;;5490713;26;20224;-82
2024/04/09 00:42:57;;;;;;;5.53;2.23;;;15.60;99.90;;;;;;5491216;26;20653;-79
2024/04/09 00:45:23;;;;;;;6.10;2.37;;;15.60;99.90;;;;;;5491010;26;20311;-78
2024/04/09 00:47:50;;;;;;;3.80;1.97;;;15.60;99.90;;;;;;5489063;26;20236;-80
2024/04/09 00:50:19;;;;;;;6.40;2.20;;;15.60;99.90;;;;;;5491199;26;20263;-79
2024/04/09 00:52:48;;;;;;;5.77;2.17;;;15.60;99.90;;;;;;5490838;26;20216;-79
2024/04/09 00:55:15;;;;;;;6.00;2.60;;;15.50;99.90;;;;;;5489483;26;20220;-79
2024/04/09 00:57:47;;;;;;;4.47;2.00;;;15.40;99.90;;;;;;5490204;26;20220;-83
2024/04/09 01:00:14;;;;;;;5.17;1.97;;;15.40;99.90;;;;;;5490896;26;20221;-79
2024/04/09 01:02:41;;;;;;;6.53;2.00;;;15.40;99.90;;;;;;5490615;26;20306;-78
2024/04/09 01:05:07;;;;;;;5.60;1.80;;;15.30;99.90;;;;;;5490658;26;20263;-80
2024/04/09 01:07:34;;;;;;;3.10;1.90;;;15.30;99.90;;;;;;5488622;26;20255;-78
2024/04/09 01:10:00;;;;;;;5.03;2.03;;;15.30;99.90;;;;;;5490576;26;20212;-83
2024/04/09 01:12:25;;;;;;;5.43;1.60;;;15.30;99.90;;;;;;5490490;26;20808;-82
2024/04/09 01:14:51;;;;;;;6.63;1.80;;;15.30;99.90;;;;;;5491215;26;20220;-80
2024/04/09 01:17:18;;;;;;;4.67;2.07;;;15.20;99.90;;;;;;5490881;26;20216;-78
2024/04/09 01:19:44;;;;;;;5.10;2.10;;;15.30;99.90;;;;;;5490454;26;20324;-79
2024/04/09 01:22:11;;;;;;;3.20;1.87;;;15.20;99.90;;;;;;5490159;26;20619;-79
2024/04/09 01:24:37;;;;;;;4.43;1.93;;;15.10;99.90;;;;;;5490511;26;20220;-82
2024/04/09 01:27:05;;;;;;;6.43;2.23;;;15.10;99.90;;;;;;5490219;26;20447;-78
2024/04/09 01:29:32;;;;;;;4.33;2.30;;;15.00;99.90;;;;;;5488103;26;20268;-78
2024/04/09 01:31:58;;;;;;;5.17;2.03;;;15.00;99.90;;;;;;5489611;26;20223;-81
2024/04/09 01:34:24;;;;;;;4.47;2.50;;;15.00;99.90;;;;;;5490302;26;20753;-78
2024/04/09 01:36:49;;;;;;;5.93;2.60;;;14.90;99.90;;;;;;5490058;26;20258;-84
2024/04/09 01:39:15;;;;;;;4.90;2.27;;;15.10;99.90;;;;;;5490107;26;20217;-79
2024/04/09 01:41:41;;;;;;;6.13;2.83;;;15.10;99.90;;;;;;5489647;26;20259;-79
2024/04/09 01:44:07;;;;;;;5.87;2.80;;;15.10;99.90;;;;;;5490231;26;20311;-78
2024/04/09 01:46:34;;;;;;;6.20;2.60;;;15.00;99.90;;;;;;5490091;26;20217;-78
2024/04/09 01:48:59;;;;;;;6.47;2.73;;;15.00;99.90;;;;;;5492769;26;20259;-77
2024/04/09 01:51:25;;;;;;;5.37;2.93;;;15.20;99.90;;;;;;5494086;26;20216;-80
2024/04/09 01:53:52;;;;;;;5.07;2.80;;;15.00;99.90;;;;;;5490573;26;20311;-84
2024/04/09 01:56:18;;;;;;;4.53;2.60;;;15.00;99.90;;;;;;5490206;26;20213;-79
2024/04/09 01:58:46;;;;;;;5.70;2.80;;;15.00;99.90;;;;;;5489763;26;20216;-81
2024/04/09 02:01:12;;;;;;;4.90;2.97;;;14.90;99.90;;;;;;5487886;26;20747;-82
2024/04/09 02:03:39;;;;;;;6.63;3.23;;;14.90;99.90;;;;;;5489495;26;20217;-82
2024/04/09 02:06:08;;;;;;;9.40;2.97;;;15.00;99.90;;;;;;5489994;26;20258;-81
2024/04/09 02:08:37;;;;;;;4.17;2.40;;;15.00;99.90;;;;;;5489630;26;20263;-79
2024/04/09 02:11:05;;;;;;;5.03;2.40;;;14.90;99.90;;;;;;5489846;26;20297;-78
2024/04/09 02:13:31;;;;;;;5.03;2.57;;;14.90;99.90;;;;;;5489227;26;20271;-79
2024/04/09 02:16:01;;;;;;;6.70;2.53;;;15.00;99.90;;;;;;5489654;26;20212;-81
2024/04/09 02:18:27;;;;;;;3.90;2.60;;;14.90;99.90;;;;;;5489575;26;20673;-82
2024/04/09 02:20:53;;;;;;;4.10;1.93;;;14.80;99.90;;;;;;5489716;26;20321;-80
2024/04/09 02:23:19;;;;;;;6.63;2.60;;;14.80;99.90;;;;;;5488538;26;20330;-78
2024/04/09 02:25:45;;;;;;;7.00;2.67;;;14.90;99.90;;;;;;5489450;26;20786;-78
2024/04/09 02:28:11;;;;;;;4.47;2.50;;;14.90;99.90;;;;;;5489375;26;20212;-78
2024/04/09 02:30:37;;;;;;;4.63;2.60;;;14.80;99.90;;;;;;5489471;26;20314;-79
2024/04/09 02:33:03;;;;;;;7.17;2.87;;;14.70;99.90;;;;;;5487010;26;20528;-78
2024/04/09 02:35:29;;;;;;;6.13;2.57;;;14.70;99.90;;;;;;5489828;26;20213;-82
2024/04/09 02:37:55;;;;;;;5.37;2.53;;;14.60;99.90;;;;;;5487540;26;20251;-77
2024/04/09 02:40:20;;;;;;;6.97;2.60;;;14.60;99.90;;;;;;5489010;26;20647;-80
2024/04/09 02:42:47;;;;;;;4.43;2.30;;;14.50;99.90;;;;;;5488628;26;20688;-80
2024/04/09 02:45:13;;;;;;;4.90;1.87;;;14.50;99.90;;;;;;5487491;26;20259;-78
2024/04/09 02:47:39;;;;;;;3.50;1.70;;;14.50;99.90;;;;;;5487269;26;20700;-83
2024/04/09 02:50:05;;;;;;;3.67;1.60;;;14.40;99.90;;;;;;5489032;26;20218;-82
2024/04/09 02:52:31;;;;;;;3.73;1.60;;;14.30;99.90;;;;;;5488626;26;20215;-82
2024/04/09 02:54:57;;;;;;;3.70;1.50;;;14.20;99.90;;;;;;5489090;26;20266;-78
2024/04/09 02:57:23;;;;;;;5.77;1.30;;;14.10;99.90;;;;;;5488888;26;20274;-78
2024/04/09 02:59:52;;;;;;;2.47;1.20;;;14.00;99.90;;;;;;5488325;26;20321;-78
2024/04/09 03:02:18;;;;;;;2.07;1.30;;;14.00;99.90;;;;;;5488644;26;20256;-81
2024/04/09 03:04:44;;;;;;;3.40;1.33;;;14.00;99.90;;;;;;5488917;26;20220;-79
2024/04/09 03:07:10;;;;;;;2.30;1.30;;;14.00;99.90;;;;;;5488353;26;20272;-79
2024/04/09 03:09:36;;;;;;;4.13;1.63;;;14.00;99.90;;;;;;5488636;26;20324;-83
2024/04/09 03:12:02;;;;;;;2.77;1.37;;;14.00;99.90;;;;;;5488336;26;20327;-79
2024/04/09 03:14:30;;;;;;;3.97;1.50;;;14.10;99.90;;;;;;5488724;26;20587;-78
2024/04/09 03:16:56;;;;;;;3.73;1.40;;;14.10;99.90;;;;;;5488278;26;20743;-79
2024/04/09 03:19:22;;;;;;;4.17;1.40;;;14.00;99.90;;;;;;5488631;26;20219;-78
2024/04/09 03:21:48;;;;;;;3.07;1.30;;;13.90;99.90;;;;;;5488295;26;20227;-82
2024/04/09 03:24:14;;;;;;;3.80;1.50;;;14.00;99.90;;;;;;5488472;26;20677;-77
2024/04/09 03:26:40;;;;;;;4.30;1.23;;;13.90;99.90;;;;;;5488378;26;20212;-82
2024/04/09 03:29:06;;;;;;;4.83;1.67;;;13.70;99.90;;;;;;5488077;26;20213;-79
2024/04/09 03:31:32;;;;;;;3.93;1.30;;;13.50;99.90;;;;;;5488104;26;20226;-78
2024/04/09 03:34:00;;;;;;;3.90;1.70;;;13.30;99.90;;;;;;5488040;26;20275;-78
2024/04/09 03:36:26;;;;;;;2.90;1.53;;;13.20;99.90;;;;;;5487929;26;20709;-82
2024/04/09 03:38:52;;;;;;;3.90;1.67;;;13.10;99.90;;;;;;5486057;26;20603;-78
2024/04/09 03:41:19;;;;;;;4.63;1.33;;;13.00;99.90;;;;;;5486002;26;20228;-81
2024/04/09 03:43:44;;;;;;;4.00;1.60;;;13.00;99.90;;;;;;5486133;26;20236;-79
2024/04/09 03:46:12;;;;;;;6.33;1.37;;;12.90;99.90;;;;;;5487649;26;20255;-77
2024/04/09 03:48:42;;;;;;;4.80;1.47;;;12.80;99.90;;;;;;5488359;26;20259;-77
2024/04/09 03:51:08;;;;;;;3.70;1.30;;;12.80;99.90;;;;;;5487450;26;20658;-79
2024/04/09 03:53:34;;;;;;;6.00;1.40;;;12.70;99.90;;;;;;5491285;26;20221;-78
2024/04/09 03:56:02;;;;;;;3.03;1.10;;;12.70;99.90;;;;;;5491489;26;20212;-78
2024/04/09 03:58:31;;;;;;;6.83;1.37;;;12.70;99.90;;;;;;5489303;26;20265;-81
2024/04/09 04:01:01;;;;;;;3.37;1.43;;;12.80;99.90;;;;;;5489421;26;20671;-79
2024/04/09 04:03:27;;;;;;;5.17;1.30;;;12.70;99.90;;;;;;5491327;26;20213;-78
2024/04/09 04:05:54;;;;;;;3.77;1.00;;;12.70;99.00;;;;;;5490750;26;20304;-80
2024/04/09 04:08:33;;;;;;;4.17;1.43;;;12.70;97.70;;;;;;5491135;26;20299;-79
2024/04/09 04:11:01;;;;;;;5.33;1.43;;;12.60;96.60;;;;;;5490598;26;20344;-78
2024/04/09 04:13:29;;;;;;;5.40;1.43;;;12.60;94.70;;;;;;5491378;26;20817;-77
2024/04/09 04:16:05;;;;;;;5.63;1.60;;;12.60;93.70;;;;;;5489350;26;20530;-78
2024/04/09 04:18:31;;;;;;;5.13;1.43;;;12.60;91.70;;;;;;5491532;26;20711;-80
2024/04/09 04:20:58;;;;;;;5.60;1.50;;;12.60;91.10;;;;;;5489486;26;20550;-83
2024/04/09 04:23:23;;;;;;;4.87;1.53;;;12.50;90.50;;;;;;5489362;26;20307;-80
2024/04/09 04:26:03;;;;;;;4.30;1.40;;;12.50;90.80;;;;;;5491333;26;20645;-78
2024/04/09 04:28:34;;;;;;;3.77;1.20;;;12.40;90.60;;;;;;5491240;26;20599;-78
2024/04/09 04:31:00;;;;;;;6.70;1.30;;;12.40;80.90;;;;;;5488872;26;20581;-78
2024/04/09 04:33:27;;;;;;;6.03;1.17;;;12.50;77.30;;;;;;5490325;26;20263;-78
2024/04/09 04:35:53;;;;;;;6.57;1.30;;;12.50;72.90;;;;;;5488792;26;20316;-83
2024/04/09 04:38:19;;;;;;;6.97;1.53;;;12.40;71.40;;;;;;5490496;26;20228;-81
2024/04/09 04:40:45;;;;;;;5.10;1.40;;;12.30;74.00;;;;;;5490769;26;20782;-79
2024/04/09 04:43:15;;;;;;;4.97;1.37;;;12.30;75.60;;;;;;5490543;26;20267;-77
2024/04/09 04:45:44;;;;;;;3.80;1.40;;;12.30;78.60;;;;;;5490621;26;20765;-79
2024/04/09 04:48:10;;;;;;;4.60;1.73;;;12.30;82.10;;;;;;5490198;26;20299;-81
2024/04/09 04:50:37;;;;;;;5.60;1.80;;;12.30;83.30;;;;;;5490721;26;20307;-78
2024/04/09 04:53:03;;;;;;;6.73;1.60;;;12.40;78.90;;;;;;5489123;26;20339;-80
2024/04/09 04:55:32;;;;;;;6.77;1.77;;;12.30;84.30;;;;;;5490178;26;20259;-81
2024/04/09 04:57:59;;;;;;;4.53;1.13;;;12.30;87.70;;;;;;5490724;26;20217;-79
2024/04/09 05:00:26;;;;;;;5.40;1.53;;;12.30;90.70;;;;;;5490034;26;20232;-79
2024/04/09 05:02:51;;;;;;;8.17;1.50;;;12.30;93.50;;;;;;5490205;26;20325;-79
2024/04/09 05:05:17;;;;;;;5.27;1.23;;;12.30;95.00;;;;;;5489361;26;20566;-79
2024/04/09 05:07:43;;;;;;;4.63;1.47;;;12.20;96.20;;;;;;5490055;26;20262;-80
2024/04/09 05:10:12;;;;;;;5.80;1.43;;;12.30;96.60;;;;;;5490538;26;20248;-82
2024/04/09 05:12:44;;;;;;;6.47;1.53;;;12.30;97.20;;;;;;5490259;26;20374;-79
2024/04/09 05:15:10;;;;;;;5.87;1.50;;;12.30;96.50;;;;;;5490388;26;20213;-79
2024/04/09 05:17:36;;;;;;;5.17;1.27;;;12.20;97.80;;;;;;5489674;26;20258;-79
2024/04/09 05:20:03;;;;;;;2.90;1.10;;;12.10;94.50;;;;;;5490227;26;20344;-79
2024/04/09 05:22:30;;;;;;;7.20;1.67;;;12.10;92.90;;;;;;5487588;26;20221;-80
2024/04/09 05:24:56;;;;;;;4.93;1.50;;;12.00;92.00;;;;;;5489462;26;20611;-82
2024/04/09 05:27:21;;;;;;;7.60;1.50;;;12.00;91.70;;;;;;5489394;26;20224;-82
2024/04/09 05:29:48;;;;;;;6.70;1.67;;;12.00;88.40;;;;;;5490507;26;20212;-80
2024/04/09 05:32:15;;;;;;;6.20;1.27;;;11.90;80.90;;;;;;5491873;26;20220;-78
2024/04/09 05:34:40;;;;;;;7.27;1.47;;;11.80;77.10;;;;;;5489878;26;20363;-80
2024/04/09 05:37:06;;;;;;;4.73;1.57;;;11.80;71.20;;;;;;5487715;26;20247;-83
2024/04/09 05:39:32;;;;;;;5.30;1.67;;;11.70;68.00;;;;;;5487724;26;20232;-80
2024/04/09 05:41:57;;;;;;;7.70;1.83;;;11.80;66.10;;;;;;5488129;26;20601;-79
2024/04/09 05:44:23;;;;;;;6.40;1.30;;;11.70;65.00;;;;;;5489081;26;20707;-80
2024/04/09 05:46:49;;;;;;;5.50;1.50;;;11.70;60.50;;;;;;5488860;26;20667;-80
2024/04/09 05:49:20;;;;;;;8.80;1.93;;;11.70;61.60;;;;;;5489044;26;20216;-79
2024/04/09 05:51:45;;;;;;;4.90;1.40;;;11.70;59.30;;;;;;5489019;26;20664;-80
2024/04/09 05:54:12;;;;;;;4.53;1.47;;;11.70;61.40;;;;;;5489576;26;20224;-79
2024/04/09 05:56:38;;;;;;;6.03;1.87;;;11.70;55.70;;;;;;5489233;26;20263;-84
2024/04/09 05:59:04;;;;;;;3.23;1.27;;;11.70;55.50;;;;;;5489389;26;20677;-79
2024/04/09 06:01:29;;;;;;;4.83;1.47;;;11.70;56.10;;;;;;5488968;26;20224;-79
2024/04/09 06:03:55;;;;;;;8.07;1.93;;;11.60;53.40;;;;;;5489217;26;20246;-79
2024/04/09 06:06:21;;;;;;;6.13;1.70;;;11.60;52.20;;;;;;5489286;26;20731;-83
2024/04/09 06:08:46;;;;;;;6.63;1.47;;;11.50;47.90;;;;;;5489099;26;20704;-78
2024/04/09 06:11:12;;;;;;;5.60;1.50;;;11.50;46.10;;;;;;5488509;26;20232;-79
2024/04/09 06:13:38;;;;;;;8.13;2.00;;;11.50;48.00;;;;;;5488500;26;20244;-80
2024/04/09 06:16:04;;;;;;;5.60;1.43;;;11.40;48.50;;;;;;5487317;26;20313;-80
2024/04/09 06:18:30;;;;;;;5.97;1.80;;;11.40;48.10;;;;;;5488801;26;20271;-79
2024/04/09 06:20:55;;;;;;;5.53;1.53;;;11.30;52.20;;;;;;5488856;26;20255;-78
2024/04/09 06:23:22;;;;;;;7.60;1.70;;;11.20;53.50;;;;;;5488214;26;20730;-79
2024/04/09 06:25:54;;;;;;;6.00;1.60;;;11.10;50.90;;;;;;5488870;26;20225;-78
2024/04/09 06:28:20;;;;;;;7.33;1.70;;;11.20;47.20;;;;;;5487519;26;20250;-79
2024/04/09 06:30:47;;;;;;;9.87;1.80;;;11.10;47.20;;;;;;5488372;26;20617;-79
2024/04/09 06:33:13;;;;;;;8.63;1.67;;;11.20;47.30;;;;;;5511919;26;20235;-81
2024/04/09 06:35:39;;;;;;;7.07;1.73;;;11.10;34.00;;;;;;5527495;25;20215;-79
2024/04/09 06:38:05;;;;;;;6.70;2.03;;;11.10;33.60;;;;;;5525727;25;20734;-81
2024/04/09 06:40:32;;;;;;;4.33;1.53;;;11.10;31.10;;;;;;5524597;26;20266;-80
2024/04/09 06:42:58;;;;;;;7.33;1.27;;;11.10;27.80;;;;;;5525201;25;20283;-79
2024/04/09 06:45:24;;;;;;;4.77;1.30;;;11.10;24.10;;;;;;5523523;26;20250;-79
2024/04/09 06:47:50;;;;;;;5.10;1.23;;;11.10;25.30;;;;;;5525731;25;20637;-80
2024/04/09 06:50:16;;;;;;;5.93;1.27;;;11.10;19.40;;;;;;5535442;25;20282;-77
2024/04/09 06:52:42;;;;;;;3.03;1.30;;;11.00;16.10;;;;;;5523355;26;20223;-77
2024/04/09 06:55:09;;;;;;;5.83;1.97;;;11.00;15.50;;;;;;5524351;25;20211;-78
2024/04/09 06:57:36;;;;;;;6.17;1.33;;;11.00;14.90;;;;;;5523097;25;20220;-80
2024/04/09 07:00:02;;;;;;;6.30;1.57;;;11.00;17.50;;;;;;5525363;25;20211;-78
2024/04/09 07:02:27;;;;;;;5.57;1.37;;;11.00;17.50;;;;;;5524874;25;20262;-79
2024/04/09 07:04:53;;;;;;;4.90;1.37;;;11.00;18.60;;;;;;5524719;26;20211;-79
2024/04/09 07:07:19;;;;;;;5.40;1.70;;;11.10;19.10;;;;;;5524809;25;20538;-81
2024/04/09 07:09:44;;;;;;;5.70;1.37;;;11.00;17.50;;;;;;5524239;25;20693;-78
2024/04/09 07:12:10;;;;;;;6.00;1.47;;;11.00;18.30;;;;;;5524321;25;20667;-81
2024/04/09 07:14:37;;;;;;;4.77;1.50;;;11.10;16.20;;;;;;5523621;26;20668;-78
2024/04/09 07:17:03;;;;;;;7.13;1.73;;;11.10;15.90;;;;;;5523632;26;20270;-78
2024/04/09 07:19:28;;;;;;;5.53;1.50;;;11.10;17.80;;;;;;5553893;25;20311;-77
2024/04/09 07:21:54;;;;;;;5.47;1.33;;;11.20;20.20;;;;;;5524836;25;20235;-77
2024/04/09 07:24:20;;;;;;;6.07;1.87;;;11.10;17.40;;;;;;5524998;26;20675;-78
2024/04/09 07:26:46;;;;;;;7.80;1.93;;;11.10;18.40;;;;;;5524325;25;20313;-83
2024/04/09 07:29:11;;;;;;;6.10;1.43;;;11.10;19.40;;;;;;5527224;25;20206;-78
2024/04/09 07:31:37;;;;;;;4.90;1.40;;;11.10;15.10;;;;;;5527838;25;20607;-79
2024/04/09 07:34:04;;;;;;;6.90;1.50;;;11.20;14.80;;;;;;5528145;25;20682;-78
2024/04/09 07:36:30;;;;;;;4.60;1.57;;;11.20;12.10;;;;;;5526716;26;20246;-79
2024/04/09 07:38:56;;;;;;;5.00;1.80;;;11.20;11.00;;;;;;5528006;25;20314;-83
2024/04/09 07:41:25;;;;;;;5.50;1.70;;;11.30;12.60;;;;;;5527959;25;20445;-79
2024/04/09 07:43:55;;;;;;;4.17;1.50;;;11.30;8.30;;;;;;5527604;25;20207;-78
2024/04/09 07:46:22;;;;;;;4.10;1.40;;;11.30;8.10;;;;;;5528333;26;20258;-79
2024/04/09 07:48:48;;;;;;;5.77;1.30;;;11.30;4.90;;;;;;5525760;25;20705;-77
2024/04/09 07:51:14;;;;;;;4.37;1.60;;;11.30;5.10;;;;;;5527968;26;20215;-78
2024/04/09 07:53:41;;;;;;;6.03;1.30;;;11.40;4.30;;;;;;5528361;26;20699;-78
2024/04/09 07:56:08;;;;;;;4.93;1.43;;;11.40;1.60;;;;;;5527925;25;20318;-82
2024/04/09 07:58:34;;;;;;;6.43;1.50;;;11.50;1.00;;;;;;5528069;25;20287;-80
2024/04/09 08:01:01;;;;;;;5.57;1.40;;;11.60;4.40;;;;;;5527416;25;20215;-80
2024/04/09 08:03:27;;;;;;;10.27;1.70;;;11.60;4.40;;;;;;5527941;25;20292;-80
2024/04/09 08:05:53;;;;;;;7.53;1.50;;;11.70;1.00;;;;;;5527514;25;20211;-82
2024/04/09 08:08:18;;;;;;;6.20;1.40;;;11.70;1.00;;;;;;5527295;25;20259;-80
2024/04/09 08:10:44;;;;;;;6.07;1.67;;;11.70;1.00;;;;;;5527191;25;20691;-80
2024/04/09 08:13:10;;;;;;;3.17;1.07;;;11.60;1.00;;;;;;5556513;25;20231;-78
2024/04/09 08:15:36;;;;;;;6.93;1.60;;;11.70;1.00;;;;;;5527089;25;20265;-80
2024/04/09 08:18:02;;;;;;;6.33;1.60;;;11.80;1.00;;;;;;5526879;25;20211;-80
2024/04/09 08:20:28;;;;;;;5.87;1.33;;;11.80;1.00;;;;;;5527043;25;20261;-77
2024/04/09 08:22:54;;;;;;;4.37;1.50;;;11.90;1.00;;;;;;5527287;25;20311;-79
2024/04/09 08:25:20;;;;;;;5.43;1.27;;;11.90;1.00;;;;;;5526398;25;20702;-78
2024/04/09 08:27:46;;;;;;;4.20;1.30;;;11.80;1.00;;;;;;5527387;26;20278;-78
2024/04/09 08:30:14;;;;;;;6.23;1.30;;;11.70;1.00;;;;;;5526860;26;20227;-78
2024/04/09 08:32:41;;;;;;;5.50;1.33;;;11.50;1.00;;;;;;5525308;26;20257;-80
2024/04/09 08:35:07;;;;;;;8.20;1.80;;;11.50;1.00;;;;;;5526968;25;20219;-79
2024/04/09 08:37:33;;;;;;;3.33;1.57;;;11.50;1.00;;;;;;5526884;25;20255;-84
2024/04/09 08:40:00;;;;;;;5.60;1.33;;;11.70;1.00;;;;;;5525443;25;20219;-79
2024/04/09 08:42:26;;;;;;;5.83;1.50;;;11.70;1.00;;;;;;5526762;25;20418;-81
2024/04/09 08:44:55;;;;;;;4.47;1.40;;;11.60;1.00;;;;;;5527217;25;20683;-80
2024/04/09 08:47:25;;;;;;;4.23;1.10;;;11.60;1.00;;;;;;5525306;26;20526;-76
2024/04/09 08:49:55;;;;;;;10.83;2.07;;;11.50;1.00;;;;;;5527105;25;20327;-80
2024/04/09 08:52:23;;;;;;;5.83;1.57;;;11.40;1.00;;;;;;5526753;25;20246;-82
2024/04/09 08:54:49;;;;;;;3.40;1.03;;;11.40;1.00;;;;;;5526991;25;20221;-79
2024/04/09 08:57:15;;;;;;;7.50;1.53;;;11.40;1.00;;;;;;5525989;25;20250;-77
2024/04/09 08:59:41;;;;;;;4.97;1.20;;;11.50;1.00;;;;;;5526893;25;20307;-77
2024/04/09 09:02:14;;;;;;;5.83;1.20;;;11.60;1.00;;;;;;5526882;25;20227;-78
2024/04/09 09:04:41;;;;;;;6.80;1.70;;;11.90;1.00;;;;;;5526468;25;20288;-80
2024/04/09 09:07:14;;;;;;;6.60;1.57;;;12.10;1.00;;;;;;5525908;25;20234;-78
2024/04/09 09:09:41;;;;;;;5.47;1.67;;;12.20;1.00;;;;;;5526211;25;20211;-81
2024/04/09 09:12:07;;;;;;;5.73;1.30;;;12.20;1.00;;;;;;5526521;25;20287;-77
2024/04/09 09:14:33;;;;;;;4.10;1.43;;;12.40;1.00;;;;;;5556017;25;20215;-79
2024/04/09 09:17:06;;;;;;;4.73;1.70;;;12.40;1.00;;;;;;5526183;25;20229;-76
2024/04/09 09:19:36;;;;;;;6.10;1.10;;;12.50;1.00;;;;;;5525673;25;20459;-78
2024/04/09 09:22:09;;;;;;;7.53;2.10;;;12.40;1.00;;;;;;5525654;25;20262;-78
2024/04/09 09:24:35;;;;;;;5.93;1.57;;;12.30;1.00;;;;;;5526074;25;20566;-78
2024/04/09 09:27:03;;;;;;;7.00;1.30;;;12.30;1.00;;;;;;5526793;25;20241;-77
2024/04/09 09:29:29;;;;;;;5.23;1.10;;;12.40;1.00;;;;;;5526211;25;20211;-78
2024/04/09 09:31:55;;;;;;;4.67;1.10;;;12.50;1.00;;;;;;5525674;25;20270;-80
2024/04/09 09:34:40;;;;;;;8.10;1.50;;;12.40;1.00;;;;;;5526339;25;20215;-80
2024/04/09 09:37:08;;;;;;;4.50;1.33;;;12.50;1.00;;;;;;5526181;25;20219;-81
2024/04/09 09:39:39;;;;;;;7.60;1.60;;;12.50;1.00;;;;;;5524778;25;20701;-79
2024/04/09 09:42:10;;;;;;;4.60;1.10;;;12.30;1.00;;;;;;5525462;25;20231;-78
2024/04/09 09:44:40;;;;;;;4.77;1.53;;;12.70;1.00;;;;;;5526246;25;20211;-79
2024/04/09 09:47:07;;;;;;;3.83;1.30;;;12.70;1.00;;;;;;5525630;25;20601;-78
2024/04/09 09:49:35;;;;;;;6.67;1.40;;;12.80;1.00;;;;;;5526174;25;20688;-82
2024/04/09 09:52:02;;;;;;;6.03;1.27;;;12.90;1.00;;;;;;5525662;25;20311;-80
2024/04/09 09:54:28;;;;;;;3.40;1.00;;;12.90;1.00;;;;;;5526462;25;20263;-80
2024/04/09 09:57:02;;;;;;;4.23;1.40;;;12.90;1.00;;;;;;5527001;25;20302;-78
2024/04/09 09:59:39;;;;;;;4.43;1.40;;;12.70;1.00;;;;;;5525235;25;20232;-78
2024/04/09 10:02:06;;;;;;;4.83;1.60;;;12.70;1.00;;;;;;5523069;26;20590;-77
2024/04/09 10:04:32;;;;;;;3.77;1.07;;;12.70;1.00;;;;;;5525018;25;20544;-79
2024/04/09 10:07:03;;;;;;;4.50;1.10;;;12.70;1.00;;;;;;5523935;26;20265;-80
2024/04/09 10:09:48;;;;;;;4.30;1.33;;;12.70;1.00;;;;;;5525335;25;20215;-79
2024/04/09 10:12:24;;;;;;;6.87;1.63;;;12.60;1.00;;;;;;5524318;25;20243;-78
2024/04/09 10:14:58;;;;;;;3.90;1.30;;;12.60;1.00;;;;;;5521975;26;20329;-77
2024/04/09 10:17:47;;;;;;;5.57;1.30;;;12.50;1.00;;;;;;5524798;25;20715;-78
2024/04/09 10:20:26;;;;;;;4.53;1.30;;;12.50;1.00;;;;;;5524024;25;20211;-81
2024/04/09 10:22:53;;;;;;;5.53;1.23;;;12.50;1.00;;;;;;5524931;25;20283;-80
2024/04/09 10:25:20;;;;;;;2.80;1.10;;;12.60;1.00;;;;;;5524961;26;20293;-78
2024/04/09 10:27:47;;;;;;;5.53;1.20;;;12.70;1.00;;;;;;5525294;25;20211;-82
2024/04/09 10:30:17;;;;;;;9.50;1.93;;;12.70;1.00;;;;;;5525697;25;20258;-79
2024/04/09 10:33:01;;;;;;;3.43;1.13;;;12.80;1.00;;;;;;5512970;25;20771;-78
2024/04/09 10:35:28;;;;;;;7.07;1.30;;;12.70;1.00;;;;;;5486464;26;20220;-78
2024/04/09 10:37:56;;;;;;;4.40;1.33;;;12.70;1.00;;;;;;5487570;26;20686;-80
2024/04/09 10:40:24;;;;;;;5.27;1.20;;;12.80;1.00;;;;;;5486598;26;20239;-77
2024/04/09 10:42:51;;;;;;;6.53;1.60;;;12.70;1.00;;;;;;5487591;26;20239;-78
2024/04/09 10:45:16;;;;;;;5.70;1.70;;;12.70;1.00;;;;;;5486051;26;20220;-81
2024/04/09 10:47:44;;;;;;;5.60;1.40;;;12.80;1.00;;;;;;5488519;26;20213;-80
2024/04/09 10:50:10;;;;;;;3.90;1.20;;;13.00;1.00;;;;;;5485643;26;20541;-82
2024/04/09 10:52:36;;;;;;;6.93;1.83;;;12.80;1.00;;;;;;5487736;26;20260;-80
2024/04/09 10:55:12;;;;;;;5.37;1.40;;;12.80;1.00;;;;;;5487647;26;20217;-79
2024/04/09 10:57:39;;;;;;;4.63;1.47;;;12.70;1.00;;;;;;5488216;26;20684;-79
2024/04/09 11:00:09;;;;;;;5.23;1.50;;;12.70;1.00;;;;;;5487766;26;20673;-79
2024/04/09 11:02:39;;;;;;;5.73;1.47;;;12.80;1.00;;;;;;5486457;26;20748;-80
2024/04/09 11:05:06;;;;;;;4.77;1.23;;;12.80;1.00;;;;;;5487789;26;20213;-80
2024/04/09 11:07:34;;;;;;;3.20;1.37;;;12.90;1.00;;;;;;5486001;26;20562;-80
2024/04/09 11:10:00;;;;;;;4.40;1.37;;;12.80;1.00;;;;;;5487496;26;20594;-80
2024/04/09 11:12:28;;;;;;;5.10;1.23;;;12.80;1.00;;;;;;5487220;26;20722;-79
2024/04/09 11:14:56;;;;;;;4.63;1.00;;;12.80;1.00;;;;;;5485695;26;20388;-79
2024/04/09 11:17:22;;;;;;;3.83;1.20;;;12.90;1.00;;;;;;5487715;26;20346;-79
2024/04/09 11:19:48;;;;;;;4.00;1.00;;;13.00;1.00;;;;;;5485100;26;20216;-79
2024/04/09 11:22:14;;;;;;;6.50;1.13;;;13.10;1.00;;;;;;5486857;26;20214;-79
2024/04/09 11:24:41;;;;;;;7.93;1.40;;;13.20;1.00;;;;;;5486575;26;20294;-78
2024/04/09 11:27:07;;;;;;;2.33;1.00;;;13.20;1.00;;;;;;5486197;26;20221;-78
2024/04/09 11:29:34;;;;;;;2.77;0.90;;;13.30;1.00;;;;;;5488206;26;20780;-77
2024/04/09 11:32:01;;;;;;;2.90;0.93;;;13.30;1.00;;;;;;5487618;26;20553;-78
2024/04/09 11:34:30;;;;;;;5.60;1.17;;;13.40;1.00;;;;;;5485421;26;20581;-79
2024/04/09 11:36:58;;;;;;;5.27;0.90;;;13.60;1.00;;;;;;5487847;26;20328;-78
2024/04/09 11:39:24;;;;;;;2.00;1.10;;;13.60;1.00;;;;;;5486745;26;20221;-80
2024/04/09 11:41:52;;;;;;;5.13;0.90;;;13.60;1.00;;;;;;5485517;26;20222;-78
2024/04/09 11:44:21;;;;;;;3.30;1.10;;;13.60;1.00;;;;;;5486748;26;20251;-78
2024/04/09 11:46:47;;;;;;;4.93;0.97;;;13.50;1.00;;;;;;5485556;26;20322;-78
2024/04/09 11:49:12;;;;;;;3.50;1.03;;;13.50;1.00;;;;;;5486728;26;20241;-79
2024/04/09 11:51:40;;;;;;;2.07;0.87;;;13.60;1.00;;;;;;5487376;26;20224;-78
2024/04/09 11:54:07;;;;;;;2.17;0.93;;;13.50;1.00;;;;;;5487011;26;20347;-80
2024/04/09 11:56:35;;;;;;;3.00;1.07;;;13.50;1.00;;;;;;5484632;26;20240;-79
2024/04/09 11:59:02;;;;;;;4.20;1.27;;;13.40;1.00;;;;;;5484408;26;20244;-79
2024/04/09 12:01:28;;;;;;;2.87;0.90;;;13.40;1.00;;;;;;5485798;26;20272;-79
2024/04/09 12:03:55;;;;;;;6.03;1.20;;;13.30;1.00;;;;;;5486772;26;20755;-79
2024/04/09 12:06:21;;;;;;;5.27;1.43;;;13.30;1.00;;;;;;5486487;26;20657;-78
2024/04/09 12:08:46;;;;;;;3.87;1.67;;;13.30;1.00;;;;;;5486795;26;20277;-80
2024/04/09 12:11:12;;;;;;;4.70;1.30;;;13.30;1.00;;;;;;5484744;26;20596;-79
2024/04/09 12:13:38;;;;;;;3.50;1.20;;;13.50;1.00;;;;;;5486622;26;20228;-78
2024/04/09 12:16:05;;;;;;;4.23;1.43;;;13.50;1.00;;;;;;5490002;26;20669;-78
2024/04/09 12:18:31;;;;;;;2.67;1.10;;;13.50;1.00;;;;;;5489714;26;20250;-76
2024/04/09 12:20:57;;;;;;;4.97;1.40;;;13.50;1.00;;;;;;5490376;26;20214;-79
2024/04/09 12:23:23;;;;;;;3.07;1.13;;;13.60;1.00;;;;;;5488662;26;20247;-78
2024/04/09 12:25:49;;;;;;;3.93;1.17;;;13.70;1.00;;;;;;5489549;26;20673;-78
2024/04/09 12:28:15;;;;;;;4.27;1.30;;;13.80;1.00;;;;;;5488574;26;20233;-79
2024/04/09 12:30:42;;;;;;;3.97;1.30;;;13.80;1.00;;;;;;5489661;26;20213;-80
2024/04/09 12:33:08;;;;;;;2.00;1.10;;;13.90;1.00;;;;;;5488260;26;20754;-83
2024/04/09 12:35:34;;;;;;;4.03;1.10;;;13.70;1.00;;;;;;5489999;26;20216;-79
2024/04/09 12:38:00;;;;;;;2.93;1.20;;;13.70;1.00;;;;;;5487872;26;20248;-82
2024/04/09 12:40:25;;;;;;;2.67;1.17;;;13.70;1.00;;;;;;5489935;26;20752;-80
2024/04/09 12:42:52;;;;;;;2.87;1.33;;;13.80;1.00;;;;;;5487713;26;20525;-79
2024/04/09 12:45:18;;;;;;;9.07;5.33;;;13.80;1.00;;;;;;5489492;26;20575;-78
2024/04/09 12:47:44;;;;;;;2.73;1.10;;;13.80;1.00;;;;;;5488711;26;20366;-77
2024/04/09 12:50:13;;;;;;;8.67;4.83;;;13.80;1.00;;;;;;5490040;26;20216;-80